sensor_id;sensor_type;location;lat;lon;timestamp;P1;durP1;ratioP1;P2;durP2;ratioP2
18435;SDS011;9346;52.006;4.720;2023-04-24T00:00:55;3.80;;;3.00;;
18435;SDS011;9346;52.006;4.720;2023-04-24T00:03:24;4.63;;;3.07;;
18435;SDS011;9346;52.006;4.720;2023-04-24T00:05:52;3.27;;;2.23;;
18435;SDS011;9346;52.006;4.720;2023-04-24T00:08:20;5.53;;;3.00;;
18435;SDS011;9346;52.006;4.720;2023-04-24T00:10:47;2.90;;;2.43;;
18435;SDS011;9346;52.006;4.720;2023-04-24T00:13:14;4.17;;;2.37;;
18435;SDS011;9346;52.006;4.720;2023-04-24T00:15:41;3.03;;;2.60;;
18435;SDS011;9346;52.006;4.720;2023-04-24T00:18:10;3.80;;;2.93;;
18435;SDS011;9346;52.006;4.720;2023-04-24T00:20:37;4.63;;;2.63;;
18435;SDS011;9346;52.006;4.720;2023-04-24T00:23:04;4.70;;;2.90;;
18435;SDS011;9346;52.006;4.720;2023-04-24T00:25:31;2.83;;;2.33;;
18435;SDS011;9346;52.006;4.720;2023-04-24T00:27:59;4.43;;;2.87;;
18435;SDS011;9346;52.006;4.720;2023-04-24T00:30:25;3.67;;;2.53;;
18435;SDS011;9346;52.006;4.720;2023-04-24T00:32:52;3.97;;;2.93;;
18435;SDS011;9346;52.006;4.720;2023-04-24T00:35:21;3.47;;;2.67;;
18435;SDS011;9346;52.006;4.720;2023-04-24T00:37:48;5.57;;;3.40;;
18435;SDS011;9346;52.006;4.720;2023-04-24T00:40:15;5.23;;;2.83;;
18435;SDS011;9346;52.006;4.720;2023-04-24T00:42:42;3.70;;;2.90;;
18435;SDS011;9346;52.006;4.720;2023-04-24T00:45:10;7.53;;;2.60;;
18435;SDS011;9346;52.006;4.720;2023-04-24T00:47:38;7.90;;;2.60;;
18435;SDS011;9346;52.006;4.720;2023-04-24T00:50:06;2.40;;;1.63;;
18435;SDS011;9346;52.006;4.720;2023-04-24T00:52:35;2.90;;;1.80;;
18435;SDS011;9346;52.006;4.720;2023-04-24T00:55:02;3.83;;;2.57;;
18435;SDS011;9346;52.006;4.720;2023-04-24T00:57:30;2.23;;;1.93;;
18435;SDS011;9346;52.006;4.720;2023-04-24T00:59:57;3.30;;;1.90;;
18435;SDS011;9346;52.006;4.720;2023-04-24T01:02:25;1.97;;;1.50;;
18435;SDS011;9346;52.006;4.720;2023-04-24T01:04:52;2.70;;;1.97;;
18435;SDS011;9346;52.006;4.720;2023-04-24T01:07:19;2.80;;;1.90;;
18435;SDS011;9346;52.006;4.720;2023-04-24T01:09:49;2.70;;;2.13;;
18435;SDS011;9346;52.006;4.720;2023-04-24T01:12:17;4.20;;;2.60;;
18435;SDS011;9346;52.006;4.720;2023-04-24T01:14:44;4.73;;;2.27;;
18435;SDS011;9346;52.006;4.720;2023-04-24T01:17:11;3.33;;;2.30;;
18435;SDS011;9346;52.006;4.720;2023-04-24T01:19:38;3.30;;;2.00;;
18435;SDS011;9346;52.006;4.720;2023-04-24T01:22:10;3.13;;;1.90;;
18435;SDS011;9346;52.006;4.720;2023-04-24T01:24:38;3.73;;;2.37;;
18435;SDS011;9346;52.006;4.720;2023-04-24T01:27:05;3.90;;;2.50;;
18435;SDS011;9346;52.006;4.720;2023-04-24T01:29:32;5.43;;;2.60;;
18435;SDS011;9346;52.006;4.720;2023-04-24T01:32:00;2.77;;;2.03;;
18435;SDS011;9346;52.006;4.720;2023-04-24T01:34:27;3.80;;;2.87;;
18435;SDS011;9346;52.006;4.720;2023-04-24T01:36:54;4.23;;;2.87;;
18435;SDS011;9346;52.006;4.720;2023-04-24T01:39:23;6.00;;;2.77;;
18435;SDS011;9346;52.006;4.720;2023-04-24T01:41:50;3.73;;;2.87;;
18435;SDS011;9346;52.006;4.720;2023-04-24T01:44:17;5.10;;;3.07;;
18435;SDS011;9346;52.006;4.720;2023-04-24T01:46:44;3.53;;;2.80;;
18435;SDS011;9346;52.006;4.720;2023-04-24T01:49:12;5.33;;;3.23;;
18435;SDS011;9346;52.006;4.720;2023-04-24T01:51:39;8.50;;;3.57;;
18435;SDS011;9346;52.006;4.720;2023-04-24T01:54:07;3.90;;;3.07;;
18435;SDS011;9346;52.006;4.720;2023-04-24T01:56:35;5.43;;;3.70;;
18435;SDS011;9346;52.006;4.720;2023-04-24T01:59:06;5.77;;;3.60;;
18435;SDS011;9346;52.006;4.720;2023-04-24T02:01:35;4.97;;;3.40;;
18435;SDS011;9346;52.006;4.720;2023-04-24T02:04:02;6.60;;;3.83;;
18435;SDS011;9346;52.006;4.720;2023-04-24T02:06:30;5.90;;;3.90;;
18435;SDS011;9346;52.006;4.720;2023-04-24T02:08:57;6.90;;;3.27;;
18435;SDS011;9346;52.006;4.720;2023-04-24T02:11:25;4.10;;;3.30;;
18435;SDS011;9346;52.006;4.720;2023-04-24T02:13:53;4.33;;;3.20;;
18435;SDS011;9346;52.006;4.720;2023-04-24T02:16:20;4.43;;;3.53;;
18435;SDS011;9346;52.006;4.720;2023-04-24T02:18:47;3.87;;;2.70;;
18435;SDS011;9346;52.006;4.720;2023-04-24T02:21:14;5.23;;;2.67;;
18435;SDS011;9346;52.006;4.720;2023-04-24T02:23:41;5.43;;;3.20;;
18435;SDS011;9346;52.006;4.720;2023-04-24T02:26:08;4.43;;;2.73;;
18435;SDS011;9346;52.006;4.720;2023-04-24T02:28:35;3.40;;;2.20;;
18435;SDS011;9346;52.006;4.720;2023-04-24T02:31:04;4.33;;;2.30;;
18435;SDS011;9346;52.006;4.720;2023-04-24T02:33:31;5.17;;;2.43;;
18435;SDS011;9346;52.006;4.720;2023-04-24T02:35:58;3.20;;;1.93;;
18435;SDS011;9346;52.006;4.720;2023-04-24T02:38:25;4.47;;;2.40;;
18435;SDS011;9346;52.006;4.720;2023-04-24T02:40:52;2.90;;;2.03;;
18435;SDS011;9346;52.006;4.720;2023-04-24T02:43:19;2.10;;;1.70;;
18435;SDS011;9346;52.006;4.720;2023-04-24T02:45:46;2.87;;;1.77;;
18435;SDS011;9346;52.006;4.720;2023-04-24T02:48:15;3.20;;;1.93;;
18435;SDS011;9346;52.006;4.720;2023-04-24T02:50:43;2.97;;;1.70;;
18435;SDS011;9346;52.006;4.720;2023-04-24T02:53:10;4.50;;;1.87;;
18435;SDS011;9346;52.006;4.720;2023-04-24T02:55:37;3.00;;;2.00;;
18435;SDS011;9346;52.006;4.720;2023-04-24T02:58:04;3.40;;;2.00;;
18435;SDS011;9346;52.006;4.720;2023-04-24T03:00:32;3.90;;;2.00;;
18435;SDS011;9346;52.006;4.720;2023-04-24T03:02:59;3.00;;;2.10;;
18435;SDS011;9346;52.006;4.720;2023-04-24T03:05:27;2.87;;;2.10;;
18435;SDS011;9346;52.006;4.720;2023-04-24T03:07:55;3.47;;;2.17;;
18435;SDS011;9346;52.006;4.720;2023-04-24T03:10:22;3.87;;;2.63;;
18435;SDS011;9346;52.006;4.720;2023-04-24T03:12:53;2.13;;;1.73;;
18435;SDS011;9346;52.006;4.720;2023-04-24T03:15:21;3.70;;;2.13;;
18435;SDS011;9346;52.006;4.720;2023-04-24T03:17:48;2.03;;;1.60;;
18435;SDS011;9346;52.006;4.720;2023-04-24T03:20:14;7.27;;;2.57;;
18435;SDS011;9346;52.006;4.720;2023-04-24T03:22:43;1.83;;;1.17;;
18435;SDS011;9346;52.006;4.720;2023-04-24T03:25:10;2.20;;;1.10;;
18435;SDS011;9346;52.006;4.720;2023-04-24T03:27:37;1.70;;;0.97;;
18435;SDS011;9346;52.006;4.720;2023-04-24T03:30:05;1.43;;;1.20;;
18435;SDS011;9346;52.006;4.720;2023-04-24T03:32:33;2.50;;;0.93;;
18435;SDS011;9346;52.006;4.720;2023-04-24T03:35:00;1.50;;;1.00;;
18435;SDS011;9346;52.006;4.720;2023-04-24T03:37:28;0.60;;;0.60;;
18435;SDS011;9346;52.006;4.720;2023-04-24T03:39:56;0.60;;;0.50;;
18435;SDS011;9346;52.006;4.720;2023-04-24T03:42:23;1.73;;;0.77;;
18435;SDS011;9346;52.006;4.720;2023-04-24T03:44:50;1.60;;;0.60;;
18435;SDS011;9346;52.006;4.720;2023-04-24T03:47:18;1.03;;;0.73;;
18435;SDS011;9346;52.006;4.720;2023-04-24T03:49:45;0.47;;;0.47;;
18435;SDS011;9346;52.006;4.720;2023-04-24T03:52:12;1.03;;;0.67;;
18435;SDS011;9346;52.006;4.720;2023-04-24T03:54:39;0.57;;;0.57;;
18435;SDS011;9346;52.006;4.720;2023-04-24T03:57:08;3.50;;;0.40;;
18435;SDS011;9346;52.006;4.720;2023-04-24T03:59:35;1.30;;;0.57;;
18435;SDS011;9346;52.006;4.720;2023-04-24T04:02:05;0.90;;;0.90;;
18435;SDS011;9346;52.006;4.720;2023-04-24T04:04:32;0.83;;;0.60;;
18435;SDS011;9346;52.006;4.720;2023-04-24T04:06:59;0.83;;;0.60;;
18435;SDS011;9346;52.006;4.720;2023-04-24T04:09:28;1.50;;;0.50;;
18435;SDS011;9346;52.006;4.720;2023-04-24T04:11:55;2.20;;;0.40;;
18435;SDS011;9346;52.006;4.720;2023-04-24T04:14:23;2.57;;;0.63;;
18435;SDS011;9346;52.006;4.720;2023-04-24T04:16:50;1.23;;;0.90;;
18435;SDS011;9346;52.006;4.720;2023-04-24T04:19:19;2.70;;;0.60;;
18435;SDS011;9346;52.006;4.720;2023-04-24T04:21:46;2.33;;;0.60;;
18435;SDS011;9346;52.006;4.720;2023-04-24T04:24:17;0.80;;;0.50;;
18435;SDS011;9346;52.006;4.720;2023-04-24T04:26:45;3.73;;;0.87;;
18435;SDS011;9346;52.006;4.720;2023-04-24T04:29:12;1.17;;;0.80;;
18435;SDS011;9346;52.006;4.720;2023-04-24T04:31:44;1.67;;;0.90;;
18435;SDS011;9346;52.006;4.720;2023-04-24T04:34:11;2.30;;;1.10;;
18435;SDS011;9346;52.006;4.720;2023-04-24T04:36:39;3.00;;;1.20;;
18435;SDS011;9346;52.006;4.720;2023-04-24T04:39:06;1.70;;;0.80;;
18435;SDS011;9346;52.006;4.720;2023-04-24T04:41:33;2.07;;;0.97;;
18435;SDS011;9346;52.006;4.720;2023-04-24T04:44:01;1.00;;;0.87;;
18435;SDS011;9346;52.006;4.720;2023-04-24T04:46:29;6.07;;;0.90;;
18435;SDS011;9346;52.006;4.720;2023-04-24T04:48:59;1.07;;;0.80;;
18435;SDS011;9346;52.006;4.720;2023-04-24T04:51:26;2.00;;;0.80;;
18435;SDS011;9346;52.006;4.720;2023-04-24T04:53:53;1.30;;;0.90;;
18435;SDS011;9346;52.006;4.720;2023-04-24T04:56:21;3.67;;;0.97;;
18435;SDS011;9346;52.006;4.720;2023-04-24T04:58:47;1.00;;;0.90;;
18435;SDS011;9346;52.006;4.720;2023-04-24T05:01:14;1.87;;;1.17;;
18435;SDS011;9346;52.006;4.720;2023-04-24T05:03:42;4.00;;;1.73;;
18435;SDS011;9346;52.006;4.720;2023-04-24T05:06:13;2.67;;;1.60;;
18435;SDS011;9346;52.006;4.720;2023-04-24T05:08:40;4.30;;;1.50;;
18435;SDS011;9346;52.006;4.720;2023-04-24T05:11:13;2.10;;;1.50;;
18435;SDS011;9346;52.006;4.720;2023-04-24T05:13:41;3.90;;;1.97;;
18435;SDS011;9346;52.006;4.720;2023-04-24T05:16:08;4.60;;;2.30;;
18435;SDS011;9346;52.006;4.720;2023-04-24T05:19:02;5.33;;;2.47;;
18435;SDS011;9346;52.006;4.720;2023-04-24T05:21:30;6.70;;;2.33;;
18435;SDS011;9346;52.006;4.720;2023-04-24T05:23:57;4.97;;;2.47;;
18435;SDS011;9346;52.006;4.720;2023-04-24T05:26:24;4.00;;;2.23;;
18435;SDS011;9346;52.006;4.720;2023-04-24T05:28:50;7.40;;;2.90;;
18435;SDS011;9346;52.006;4.720;2023-04-24T05:31:17;4.50;;;3.10;;
18435;SDS011;9346;52.006;4.720;2023-04-24T05:33:44;12.30;;;6.30;;
18435;SDS011;9346;52.006;4.720;2023-04-24T05:36:13;17.17;;;5.73;;
18435;SDS011;9346;52.006;4.720;2023-04-24T05:38:40;12.40;;;5.73;;
18435;SDS011;9346;52.006;4.720;2023-04-24T05:41:10;9.23;;;5.07;;
18435;SDS011;9346;52.006;4.720;2023-04-24T05:43:37;9.00;;;6.33;;
18435;SDS011;9346;52.006;4.720;2023-04-24T05:46:04;14.10;;;7.73;;
18435;SDS011;9346;52.006;4.720;2023-04-24T05:48:31;19.00;;;7.90;;
18435;SDS011;9346;52.006;4.720;2023-04-24T05:50:58;20.23;;;8.93;;
18435;SDS011;9346;52.006;4.720;2023-04-24T05:53:27;24.27;;;9.30;;
18435;SDS011;9346;52.006;4.720;2023-04-24T05:55:54;17.50;;;9.30;;
18435;SDS011;9346;52.006;4.720;2023-04-24T05:58:24;18.03;;;8.63;;
18435;SDS011;9346;52.006;4.720;2023-04-24T06:00:51;19.67;;;8.70;;
18435;SDS011;9346;52.006;4.720;2023-04-24T06:03:18;17.50;;;9.23;;
18435;SDS011;9346;52.006;4.720;2023-04-24T06:05:45;15.63;;;8.50;;
18435;SDS011;9346;52.006;4.720;2023-04-24T06:08:12;18.50;;;9.00;;
18435;SDS011;9346;52.006;4.720;2023-04-24T06:10:40;13.60;;;7.60;;
18435;SDS011;9346;52.006;4.720;2023-04-24T06:13:07;18.87;;;9.07;;
18435;SDS011;9346;52.006;4.720;2023-04-24T06:15:34;20.00;;;9.43;;
18435;SDS011;9346;52.006;4.720;2023-04-24T06:18:01;15.47;;;7.80;;
18435;SDS011;9346;52.006;4.720;2023-04-24T06:20:29;18.70;;;7.90;;
18435;SDS011;9346;52.006;4.720;2023-04-24T06:22:56;22.90;;;9.07;;
18435;SDS011;9346;52.006;4.720;2023-04-24T06:25:24;19.90;;;8.70;;
18435;SDS011;9346;52.006;4.720;2023-04-24T06:27:53;12.60;;;7.70;;
18435;SDS011;9346;52.006;4.720;2023-04-24T06:30:20;21.57;;;7.93;;
18435;SDS011;9346;52.006;4.720;2023-04-24T06:32:47;16.43;;;7.10;;
18435;SDS011;9346;52.006;4.720;2023-04-24T06:35:13;18.83;;;6.70;;
18435;SDS011;9346;52.006;4.720;2023-04-24T06:37:41;16.33;;;5.80;;
18435;SDS011;9346;52.006;4.720;2023-04-24T06:40:08;20.50;;;5.73;;
18435;SDS011;9346;52.006;4.720;2023-04-24T06:42:36;14.93;;;5.37;;
18435;SDS011;9346;52.006;4.720;2023-04-24T06:45:05;19.53;;;4.97;;
18435;SDS011;9346;52.006;4.720;2023-04-24T06:47:35;14.13;;;5.17;;
18435;SDS011;9346;52.006;4.720;2023-04-24T06:50:03;15.23;;;5.63;;
18435;SDS011;9346;52.006;4.720;2023-04-24T06:52:30;17.23;;;4.93;;
18435;SDS011;9346;52.006;4.720;2023-04-24T06:54:59;13.70;;;5.10;;
18435;SDS011;9346;52.006;4.720;2023-04-24T06:57:27;15.73;;;4.40;;
18435;SDS011;9346;52.006;4.720;2023-04-24T06:59:54;16.20;;;5.30;;
18435;SDS011;9346;52.006;4.720;2023-04-24T07:02:26;8.47;;;4.57;;
18435;SDS011;9346;52.006;4.720;2023-04-24T07:04:52;10.60;;;4.57;;
18435;SDS011;9346;52.006;4.720;2023-04-24T07:07:22;14.10;;;4.17;;
18435;SDS011;9346;52.006;4.720;2023-04-24T07:09:49;12.47;;;5.10;;
18435;SDS011;9346;52.006;4.720;2023-04-24T07:12:16;12.87;;;3.90;;
18435;SDS011;9346;52.006;4.720;2023-04-24T07:14:45;23.70;;;5.20;;
18435;SDS011;9346;52.006;4.720;2023-04-24T07:17:13;19.53;;;3.73;;
18435;SDS011;9346;52.006;4.720;2023-04-24T07:19:41;6.80;;;4.03;;
18435;SDS011;9346;52.006;4.720;2023-04-24T07:22:08;17.40;;;4.07;;
18435;SDS011;9346;52.006;4.720;2023-04-24T07:24:36;14.23;;;3.23;;
18435;SDS011;9346;52.006;4.720;2023-04-24T07:27:03;16.40;;;2.93;;
18435;SDS011;9346;52.006;4.720;2023-04-24T07:29:31;19.10;;;3.27;;
18435;SDS011;9346;52.006;4.720;2023-04-24T07:31:58;9.50;;;2.47;;
18435;SDS011;9346;52.006;4.720;2023-04-24T07:34:24;8.73;;;3.13;;
18435;SDS011;9346;52.006;4.720;2023-04-24T07:36:53;13.30;;;3.27;;
18435;SDS011;9346;52.006;4.720;2023-04-24T07:39:20;11.50;;;2.87;;
18435;SDS011;9346;52.006;4.720;2023-04-24T07:41:47;13.03;;;3.10;;
18435;SDS011;9346;52.006;4.720;2023-04-24T07:44:16;10.43;;;2.50;;
18435;SDS011;9346;52.006;4.720;2023-04-24T07:46:43;15.20;;;3.03;;
18435;SDS011;9346;52.006;4.720;2023-04-24T07:49:10;12.53;;;3.07;;
18435;SDS011;9346;52.006;4.720;2023-04-24T07:51:37;13.47;;;3.20;;
18435;SDS011;9346;52.006;4.720;2023-04-24T07:54:06;15.97;;;3.10;;
18435;SDS011;9346;52.006;4.720;2023-04-24T07:56:33;13.73;;;2.83;;
18435;SDS011;9346;52.006;4.720;2023-04-24T07:59:03;23.77;;;3.47;;
18435;SDS011;9346;52.006;4.720;2023-04-24T08:01:31;15.73;;;3.17;;
18435;SDS011;9346;52.006;4.720;2023-04-24T08:03:58;12.93;;;2.43;;
18435;SDS011;9346;52.006;4.720;2023-04-24T08:06:25;9.83;;;2.40;;
18435;SDS011;9346;52.006;4.720;2023-04-24T08:08:55;10.23;;;2.73;;
18435;SDS011;9346;52.006;4.720;2023-04-24T08:11:24;11.10;;;2.93;;
18435;SDS011;9346;52.006;4.720;2023-04-24T08:13:53;18.00;;;3.47;;
18435;SDS011;9346;52.006;4.720;2023-04-24T08:16:21;7.30;;;2.40;;
18435;SDS011;9346;52.006;4.720;2023-04-24T08:18:48;9.50;;;2.17;;
18435;SDS011;9346;52.006;4.720;2023-04-24T08:21:16;16.43;;;2.30;;
18435;SDS011;9346;52.006;4.720;2023-04-24T08:23:44;10.83;;;2.80;;
18435;SDS011;9346;52.006;4.720;2023-04-24T08:26:13;12.53;;;2.23;;
18435;SDS011;9346;52.006;4.720;2023-04-24T08:28:45;6.83;;;2.30;;
18435;SDS011;9346;52.006;4.720;2023-04-24T08:31:12;5.00;;;1.70;;
18435;SDS011;9346;52.006;4.720;2023-04-24T08:33:39;10.50;;;2.87;;
18435;SDS011;9346;52.006;4.720;2023-04-24T08:36:06;4.73;;;1.80;;
18435;SDS011;9346;52.006;4.720;2023-04-24T08:38:34;10.70;;;2.30;;
18435;SDS011;9346;52.006;4.720;2023-04-24T08:41:03;7.30;;;2.47;;
18435;SDS011;9346;52.006;4.720;2023-04-24T08:43:34;6.43;;;2.40;;
18435;SDS011;9346;52.006;4.720;2023-04-24T08:46:07;7.60;;;1.87;;
18435;SDS011;9346;52.006;4.720;2023-04-24T08:48:36;10.47;;;2.27;;
18435;SDS011;9346;52.006;4.720;2023-04-24T08:51:05;4.90;;;1.77;;
18435;SDS011;9346;52.006;4.720;2023-04-24T08:53:34;8.03;;;2.63;;
18435;SDS011;9346;52.006;4.720;2023-04-24T08:56:02;6.70;;;2.03;;
18435;SDS011;9346;52.006;4.720;2023-04-24T08:58:31;4.47;;;1.23;;
18435;SDS011;9346;52.006;4.720;2023-04-24T09:00:58;3.77;;;1.90;;
18435;SDS011;9346;52.006;4.720;2023-04-24T09:03:28;5.13;;;1.80;;
18435;SDS011;9346;52.006;4.720;2023-04-24T09:06:30;7.30;;;1.90;;
18435;SDS011;9346;52.006;4.720;2023-04-24T09:08:59;4.57;;;1.30;;
18435;SDS011;9346;52.006;4.720;2023-04-24T09:11:29;3.17;;;1.67;;
18435;SDS011;9346;52.006;4.720;2023-04-24T09:13:56;5.77;;;1.60;;
18435;SDS011;9346;52.006;4.720;2023-04-24T09:16:25;7.03;;;2.13;;
18435;SDS011;9346;52.006;4.720;2023-04-24T09:18:53;6.77;;;1.80;;
18435;SDS011;9346;52.006;4.720;2023-04-24T09:21:22;2.40;;;1.73;;
18435;SDS011;9346;52.006;4.720;2023-04-24T09:24:00;5.13;;;1.50;;
18435;SDS011;9346;52.006;4.720;2023-04-24T09:26:29;1.73;;;0.90;;
18435;SDS011;9346;52.006;4.720;2023-04-24T09:28:58;4.17;;;1.47;;
18435;SDS011;9346;52.006;4.720;2023-04-24T09:31:28;6.33;;;1.53;;
18435;SDS011;9346;52.006;4.720;2023-04-24T09:33:56;7.57;;;1.37;;
18435;SDS011;9346;52.006;4.720;2023-04-24T09:36:28;0.90;;;0.70;;
18435;SDS011;9346;52.006;4.720;2023-04-24T09:38:58;3.57;;;1.03;;
18435;SDS011;9346;52.006;4.720;2023-04-24T09:41:27;3.43;;;1.53;;
18435;SDS011;9346;52.006;4.720;2023-04-24T09:43:55;7.43;;;1.57;;
18435;SDS011;9346;52.006;4.720;2023-04-24T09:46:29;5.23;;;0.93;;
18435;SDS011;9346;52.006;4.720;2023-04-24T09:48:58;6.27;;;1.17;;
18435;SDS011;9346;52.006;4.720;2023-04-24T09:51:35;1.60;;;0.87;;
18435;SDS011;9346;52.006;4.720;2023-04-24T09:54:11;4.87;;;0.80;;
18435;SDS011;9346;52.006;4.720;2023-04-24T09:56:43;5.77;;;1.10;;
18435;SDS011;9346;52.006;4.720;2023-04-24T09:59:11;3.97;;;1.00;;
18435;SDS011;9346;52.006;4.720;2023-04-24T10:01:39;6.87;;;1.67;;
18435;SDS011;9346;52.006;4.720;2023-04-24T10:04:14;2.47;;;0.93;;
18435;SDS011;9346;52.006;4.720;2023-04-24T10:06:43;2.70;;;0.83;;
18435;SDS011;9346;52.006;4.720;2023-04-24T10:09:13;3.87;;;1.10;;
18435;SDS011;9346;52.006;4.720;2023-04-24T10:11:41;3.87;;;0.80;;
18435;SDS011;9346;52.006;4.720;2023-04-24T10:14:10;3.60;;;0.80;;
18435;SDS011;9346;52.006;4.720;2023-04-24T10:16:41;5.00;;;1.30;;
18435;SDS011;9346;52.006;4.720;2023-04-24T10:19:09;0.97;;;0.70;;
18435;SDS011;9346;52.006;4.720;2023-04-24T10:21:38;2.30;;;0.90;;
18435;SDS011;9346;52.006;4.720;2023-04-24T10:24:13;6.37;;;1.00;;
18435;SDS011;9346;52.006;4.720;2023-04-24T10:26:41;1.27;;;0.60;;
18435;SDS011;9346;52.006;4.720;2023-04-24T10:29:13;3.13;;;0.60;;
18435;SDS011;9346;52.006;4.720;2023-04-24T10:31:41;9.00;;;1.00;;
18435;SDS011;9346;52.006;4.720;2023-04-24T10:34:10;1.83;;;0.87;;
18435;SDS011;9346;52.006;4.720;2023-04-24T10:36:38;4.23;;;0.73;;
18435;SDS011;9346;52.006;4.720;2023-04-24T10:39:10;0.87;;;0.70;;
18435;SDS011;9346;52.006;4.720;2023-04-24T10:41:41;2.27;;;0.83;;
18435;SDS011;9346;52.006;4.720;2023-04-24T10:44:10;4.30;;;0.80;;
18435;SDS011;9346;52.006;4.720;2023-04-24T10:46:39;5.40;;;0.70;;
18435;SDS011;9346;52.006;4.720;2023-04-24T10:49:09;5.00;;;0.93;;
18435;SDS011;9346;52.006;4.720;2023-04-24T10:51:44;3.90;;;1.20;;
18435;SDS011;9346;52.006;4.720;2023-04-24T10:54:24;4.83;;;1.07;;
18435;SDS011;9346;52.006;4.720;2023-04-24T10:56:53;7.73;;;1.00;;
18435;SDS011;9346;52.006;4.720;2023-04-24T10:59:41;3.97;;;0.90;;
18435;SDS011;9346;52.006;4.720;2023-04-24T11:02:08;4.20;;;1.20;;
18435;SDS011;9346;52.006;4.720;2023-04-24T11:04:35;2.83;;;0.73;;
18435;SDS011;9346;52.006;4.720;2023-04-24T11:07:02;2.00;;;1.07;;
18435;SDS011;9346;52.006;4.720;2023-04-24T11:09:34;2.80;;;0.90;;
18435;SDS011;9346;52.006;4.720;2023-04-24T11:12:02;5.60;;;1.57;;
18435;SDS011;9346;52.006;4.720;2023-04-24T11:17:30;4.20;;;1.10;;
18435;SDS011;9346;52.006;4.720;2023-04-24T11:20:02;7.40;;;1.07;;
18435;SDS011;9346;52.006;4.720;2023-04-24T11:22:32;5.87;;;0.80;;
18435;SDS011;9346;52.006;4.720;2023-04-24T11:25:04;9.17;;;1.07;;
18435;SDS011;9346;52.006;4.720;2023-04-24T11:27:38;5.50;;;1.27;;
18435;SDS011;9346;52.006;4.720;2023-04-24T11:30:06;2.03;;;0.70;;
18435;SDS011;9346;52.006;4.720;2023-04-24T11:32:35;6.23;;;0.63;;
18435;SDS011;9346;52.006;4.720;2023-04-24T11:35:05;5.00;;;1.27;;
18435;SDS011;9346;52.006;4.720;2023-04-24T11:37:40;1.50;;;0.67;;
18435;SDS011;9346;52.006;4.720;2023-04-24T11:40:13;1.37;;;0.70;;
18435;SDS011;9346;52.006;4.720;2023-04-24T11:42:41;4.37;;;1.00;;
18435;SDS011;9346;52.006;4.720;2023-04-24T11:45:10;8.43;;;1.70;;
18435;SDS011;9346;52.006;4.720;2023-04-24T11:47:38;2.50;;;1.10;;
18435;SDS011;9346;52.006;4.720;2023-04-24T11:50:06;3.20;;;0.87;;
18435;SDS011;9346;52.006;4.720;2023-04-24T11:52:36;2.07;;;0.80;;
18435;SDS011;9346;52.006;4.720;2023-04-24T11:55:06;3.90;;;1.80;;
18435;SDS011;9346;52.006;4.720;2023-04-24T11:57:36;7.67;;;1.53;;
18435;SDS011;9346;52.006;4.720;2023-04-24T12:00:03;2.70;;;0.70;;
18435;SDS011;9346;52.006;4.720;2023-04-24T12:02:33;3.93;;;0.87;;
18435;SDS011;9346;52.006;4.720;2023-04-24T12:05:00;2.57;;;0.90;;
18435;SDS011;9346;52.006;4.720;2023-04-24T12:07:27;4.03;;;1.37;;
18435;SDS011;9346;52.006;4.720;2023-04-24T12:09:55;4.47;;;1.20;;
18435;SDS011;9346;52.006;4.720;2023-04-24T12:12:24;4.73;;;1.30;;
18435;SDS011;9346;52.006;4.720;2023-04-24T12:14:55;4.37;;;1.50;;
18435;SDS011;9346;52.006;4.720;2023-04-24T12:17:25;9.13;;;2.30;;
18435;SDS011;9346;52.006;4.720;2023-04-24T12:19:59;2.47;;;1.47;;
18435;SDS011;9346;52.006;4.720;2023-04-24T12:22:27;6.00;;;1.70;;
18435;SDS011;9346;52.006;4.720;2023-04-24T12:24:56;2.40;;;1.20;;
18435;SDS011;9346;52.006;4.720;2023-04-24T12:27:25;4.03;;;2.07;;
18435;SDS011;9346;52.006;4.720;2023-04-24T12:29:55;2.87;;;1.33;;
18435;SDS011;9346;52.006;4.720;2023-04-24T12:32:23;9.13;;;1.73;;
18435;SDS011;9346;52.006;4.720;2023-04-24T12:34:51;5.67;;;1.50;;
18435;SDS011;9346;52.006;4.720;2023-04-24T12:37:19;7.90;;;1.90;;
18435;SDS011;9346;52.006;4.720;2023-04-24T12:42:41;4.47;;;1.13;;
18435;SDS011;9346;52.006;4.720;2023-04-24T12:45:13;3.50;;;1.50;;
18435;SDS011;9346;52.006;4.720;2023-04-24T12:47:42;7.40;;;1.90;;
18435;SDS011;9346;52.006;4.720;2023-04-24T12:50:10;4.27;;;2.13;;
18435;SDS011;9346;52.006;4.720;2023-04-24T12:52:38;6.47;;;3.10;;
18435;SDS011;9346;52.006;4.720;2023-04-24T12:55:07;4.40;;;1.80;;
18435;SDS011;9346;52.006;4.720;2023-04-24T12:57:36;9.03;;;2.03;;
18435;SDS011;9346;52.006;4.720;2023-04-24T13:00:04;13.53;;;2.30;;
18435;SDS011;9346;52.006;4.720;2023-04-24T13:02:35;8.87;;;2.53;;
18435;SDS011;9346;52.006;4.720;2023-04-24T13:05:02;8.60;;;1.83;;
18435;SDS011;9346;52.006;4.720;2023-04-24T13:07:29;6.60;;;2.20;;
18435;SDS011;9346;52.006;4.720;2023-04-24T13:09:56;5.13;;;1.57;;
18435;SDS011;9346;52.006;4.720;2023-04-24T13:12:24;5.87;;;1.97;;
18435;SDS011;9346;52.006;4.720;2023-04-24T13:14:51;8.60;;;1.80;;
18435;SDS011;9346;52.006;4.720;2023-04-24T13:17:18;11.17;;;2.30;;
18435;SDS011;9346;52.006;4.720;2023-04-24T13:19:49;5.30;;;1.70;;
18435;SDS011;9346;52.006;4.720;2023-04-24T13:22:18;11.10;;;2.17;;
18435;SDS011;9346;52.006;4.720;2023-04-24T13:24:45;10.30;;;2.47;;
18435;SDS011;9346;52.006;4.720;2023-04-24T13:27:13;7.57;;;2.00;;
18435;SDS011;9346;52.006;4.720;2023-04-24T13:29:40;4.80;;;1.70;;
18435;SDS011;9346;52.006;4.720;2023-04-24T13:32:08;14.30;;;2.50;;
18435;SDS011;9346;52.006;4.720;2023-04-24T13:34:36;6.80;;;2.20;;
18435;SDS011;9346;52.006;4.720;2023-04-24T13:37:04;6.00;;;1.53;;
18435;SDS011;9346;52.006;4.720;2023-04-24T13:39:32;7.17;;;2.10;;
18435;SDS011;9346;52.006;4.720;2023-04-24T13:42:03;4.20;;;1.53;;
18435;SDS011;9346;52.006;4.720;2023-04-24T13:44:30;6.70;;;1.50;;
18435;SDS011;9346;52.006;4.720;2023-04-24T13:46:57;8.23;;;1.80;;
18435;SDS011;9346;52.006;4.720;2023-04-24T13:49:25;7.90;;;2.30;;
18435;SDS011;9346;52.006;4.720;2023-04-24T13:51:53;4.03;;;1.77;;
18435;SDS011;9346;52.006;4.720;2023-04-24T13:54:24;4.33;;;2.03;;
18435;SDS011;9346;52.006;4.720;2023-04-24T13:56:51;5.07;;;1.83;;
18435;SDS011;9346;52.006;4.720;2023-04-24T13:59:19;4.70;;;1.97;;
18435;SDS011;9346;52.006;4.720;2023-04-24T14:01:46;4.30;;;2.20;;
18435;SDS011;9346;52.006;4.720;2023-04-24T14:04:13;11.57;;;2.33;;
18435;SDS011;9346;52.006;4.720;2023-04-24T14:06:40;5.50;;;2.40;;
18435;SDS011;9346;52.006;4.720;2023-04-24T14:09:07;11.23;;;2.27;;
18435;SDS011;9346;52.006;4.720;2023-04-24T14:11:36;4.17;;;1.93;;
18435;SDS011;9346;52.006;4.720;2023-04-24T14:14:03;3.70;;;2.10;;
18435;SDS011;9346;52.006;4.720;2023-04-24T14:16:30;9.60;;;2.07;;
18435;SDS011;9346;52.006;4.720;2023-04-24T14:18:58;6.47;;;2.00;;
18435;SDS011;9346;52.006;4.720;2023-04-24T14:21:25;7.73;;;2.10;;
18435;SDS011;9346;52.006;4.720;2023-04-24T14:23:52;6.43;;;2.30;;
18435;SDS011;9346;52.006;4.720;2023-04-24T14:26:20;5.07;;;2.37;;
18435;SDS011;9346;52.006;4.720;2023-04-24T14:28:50;4.20;;;2.17;;
18435;SDS011;9346;52.006;4.720;2023-04-24T14:31:18;4.60;;;2.03;;
18435;SDS011;9346;52.006;4.720;2023-04-24T14:33:45;9.17;;;3.03;;
18435;SDS011;9346;52.006;4.720;2023-04-24T14:36:12;7.00;;;3.03;;
18435;SDS011;9346;52.006;4.720;2023-04-24T14:38:43;9.17;;;2.20;;
18435;SDS011;9346;52.006;4.720;2023-04-24T14:41:10;6.33;;;2.57;;
18435;SDS011;9346;52.006;4.720;2023-04-24T14:43:37;11.33;;;2.93;;
18435;SDS011;9346;52.006;4.720;2023-04-24T14:46:07;10.70;;;2.37;;
18435;SDS011;9346;52.006;4.720;2023-04-24T14:48:34;4.13;;;2.50;;
18435;SDS011;9346;52.006;4.720;2023-04-24T14:51:02;8.03;;;3.10;;
18435;SDS011;9346;52.006;4.720;2023-04-24T14:53:29;4.27;;;2.97;;
18435;SDS011;9346;52.006;4.720;2023-04-24T14:55:56;7.33;;;2.80;;
18435;SDS011;9346;52.006;4.720;2023-04-24T14:58:23;13.93;;;3.10;;
18435;SDS011;9346;52.006;4.720;2023-04-24T15:00:50;6.77;;;3.00;;
18435;SDS011;9346;52.006;4.720;2023-04-24T15:03:22;5.43;;;2.87;;
18435;SDS011;9346;52.006;4.720;2023-04-24T15:05:51;7.30;;;2.80;;
18435;SDS011;9346;52.006;4.720;2023-04-24T15:08:18;4.30;;;2.10;;
18435;SDS011;9346;52.006;4.720;2023-04-24T15:10:46;8.20;;;2.63;;